createdAt,value
2018-08-09T00:00:25.169Z,65.66
2018-08-09T00:02:56.065Z,65.09
2018-08-09T00:05:26.704Z,64.77
2018-08-09T00:07:57.456Z,64.71
2018-08-09T00:10:28.056Z,66.16
2018-08-09T00:12:58.769Z,66.56
2018-08-09T00:15:29.480Z,67.86
2018-08-09T00:18:00.267Z,67.54
2018-08-09T00:20:30.944Z,66.97
2018-08-09T00:23:01.744Z,66.91
2018-08-09T00:25:32.376Z,66.63
2018-08-09T00:28:03.185Z,66.66
2018-08-09T00:30:33.981Z,66.80
2018-08-09T00:33:05.013Z,66.16
2018-08-09T00:35:35.713Z,66.13
2018-08-09T00:38:06.497Z,65.79
2018-08-09T00:40:37.770Z,66.55
2018-08-09T00:43:08.517Z,66.33
2018-08-09T00:45:39.173Z,65.94
2018-08-09T00:48:10.163Z,66.22
2018-08-09T00:50:40.768Z,66.59
2018-08-09T00:53:11.292Z,66.71
2018-08-09T00:55:41.936Z,68.36
2018-08-09T00:58:12.806Z,67.43
2018-08-09T01:00:43.408Z,67.82
2018-08-09T01:03:14.196Z,68.82
2018-08-09T01:05:44.769Z,68.34
2018-08-09T01:08:15.500Z,66.79
2018-08-09T01:10:46.240Z,67.33
2018-08-09T01:13:17.086Z,67.75
2018-08-09T01:15:47.813Z,67.56
2018-08-09T01:18:18.553Z,66.42
2018-08-09T01:20:49.241Z,66.73
2018-08-09T01:23:20.202Z,67.02
2018-08-09T01:25:50.900Z,67.37
2018-08-09T01:28:21.533Z,68.18
2018-08-09T01:30:52.161Z,68.19
2018-08-09T01:33:22.936Z,67.58
2018-08-09T01:35:53.596Z,66.69
2018-08-09T01:38:24.496Z,67.29
2018-08-09T01:40:55.216Z,67.79
2018-08-09T01:43:42.123Z,68.18
2018-08-09T01:46:12.661Z,66.72
2018-08-09T01:48:43.480Z,65.91
2018-08-09T01:51:14.045Z,67.16
2018-08-09T01:53:44.742Z,68.07
2018-08-09T01:56:15.307Z,66.67
2018-08-09T01:58:46.185Z,66.75
2018-08-09T02:01:16.834Z,67.59
2018-08-09T02:03:47.520Z,68.56
2018-08-09T02:06:18.951Z,69.36
2018-08-09T02:08:50.115Z,67.75
2018-08-09T02:11:20.841Z,67.06
2018-08-09T02:13:51.673Z,68.46
2018-08-09T02:16:22.357Z,69.71
2018-08-09T02:18:53.509Z,69.25
2018-08-09T02:21:23.877Z,68.76
2018-08-09T02:23:54.699Z,69.44
2018-08-09T02:26:25.457Z,68.82
2018-08-09T02:28:56.132Z,69.09
2018-08-09T02:31:26.719Z,69.15
2018-08-09T02:33:57.516Z,69.88
2018-08-09T02:36:28.172Z,69.64
2018-08-09T02:38:59.100Z,69.01
2018-08-09T02:41:29.645Z,69.01
2018-08-09T02:44:00.682Z,69.35
2018-08-09T02:46:31.505Z,67.33
2018-08-09T02:49:02.103Z,67.70
2018-08-09T02:51:32.740Z,68.16
2018-08-09T02:54:03.492Z,69.40
2018-08-09T02:56:34.097Z,69.76
2018-08-09T02:59:04.797Z,68.74
2018-08-09T03:01:35.472Z,68.84
2018-08-09T03:04:06.025Z,68.55
2018-08-09T03:06:36.787Z,68.03
2018-08-09T03:09:12.613Z,68.05
2018-08-09T03:11:44.067Z,67.54
2018-08-09T03:14:14.917Z,68.53
2018-08-09T03:16:45.676Z,68.40
2018-08-09T03:19:16.769Z,68.60
2018-08-09T03:21:47.404Z,67.98
2018-08-09T03:24:18.242Z,67.86
2018-08-09T03:26:48.852Z,67.90
2018-08-09T03:29:19.673Z,68.21
2018-08-09T03:31:50.325Z,66.77
2018-08-09T03:34:21.140Z,67.07
2018-08-09T03:36:51.776Z,67.58
2018-08-09T03:39:22.529Z,66.95
2018-08-09T03:41:53.048Z,66.33
2018-08-09T03:44:23.937Z,65.71
2018-08-09T03:46:54.752Z,66.92
2018-08-09T03:49:26.009Z,67.06
2018-08-09T03:51:56.609Z,66.49
2018-08-09T03:54:27.301Z,65.57
2018-08-09T03:56:57.884Z,65.62
2018-08-09T03:59:28.677Z,65.18
2018-08-09T04:01:59.361Z,65.06
2018-08-09T04:04:30.237Z,64.83
2018-08-09T04:07:00.852Z,65.44
2018-08-09T04:09:32.079Z,65.51
2018-08-09T04:12:02.828Z,67.33
2018-08-09T04:14:33.638Z,67.20
2018-08-09T04:17:08.376Z,67.11
2018-08-09T04:19:39.281Z,67.81
2018-08-09T04:22:09.796Z,66.83
2018-08-09T04:24:41.090Z,65.99
2018-08-09T04:27:11.668Z,67.20
2018-08-09T04:29:42.326Z,67.24
2018-08-09T04:32:12.982Z,66.54
2018-08-09T04:34:43.752Z,66.54
2018-08-09T04:37:14.422Z,66.09
2018-08-09T04:39:45.055Z,66.41
2018-08-09T04:42:15.685Z,66.36
2018-08-09T04:44:46.365Z,65.64
2018-08-09T04:47:16.998Z,61.05
2018-08-09T04:49:47.925Z,62.26
2018-08-09T04:52:18.628Z,56.38
2018-08-09T04:54:49.257Z,54.25
2018-08-09T04:57:20.046Z,52.93
2018-08-09T04:59:50.904Z,52.08
2018-08-09T05:02:21.513Z,52.79
2018-08-09T05:04:52.500Z,54.90
2018-08-09T05:07:23.169Z,53.57
2018-08-09T05:09:53.964Z,51.73
2018-08-09T05:12:24.640Z,49.47
2018-08-09T05:14:55.552Z,49.57
2018-08-09T05:17:26.017Z,49.25
2018-08-09T05:19:56.796Z,49.27
2018-08-09T05:22:27.413Z,45.93
2018-08-09T05:24:58.110Z,45.28
2018-08-09T05:27:28.965Z,45.61
2018-08-09T05:29:59.712Z,46.69
2018-08-09T05:32:30.785Z,46.92
2018-08-09T05:35:01.453Z,49.87
2018-08-09T05:37:32.081Z,50.45
2018-08-09T05:40:02.771Z,49.04
2018-08-09T05:42:33.398Z,47.87
2018-08-09T05:45:04.153Z,47.63
2018-08-09T05:47:34.810Z,47.32
2018-08-09T05:50:06.201Z,47.80
2018-08-09T05:52:36.889Z,48.82
2018-08-09T05:55:07.857Z,46.28
2018-08-09T05:57:38.385Z,48.46
2018-08-09T06:00:09.592Z,47.58
2018-08-09T06:02:40.388Z,47.80
2018-08-09T06:05:11.128Z,46.48
2018-08-09T06:07:41.865Z,45.49
2018-08-09T06:10:12.637Z,45.45
2018-08-09T06:12:43.485Z,47.46
2018-08-09T06:15:14.358Z,46.75
2018-08-09T06:17:45.006Z,48.85
2018-08-09T06:20:15.709Z,46.29
2018-08-09T06:22:46.320Z,46.60
2018-08-09T06:25:17.226Z,45.26
2018-08-09T06:27:47.769Z,44.12
2018-08-09T06:30:18.654Z,45.44
2018-08-09T06:32:49.313Z,45.52
2018-08-09T06:35:20.114Z,44.87
2018-08-09T06:37:50.867Z,42.71
2018-08-09T06:40:21.480Z,43.03
2018-08-09T06:42:52.230Z,43.40
2018-08-09T06:45:22.959Z,42.38
2018-08-09T06:47:53.803Z,42.55
2018-08-09T06:50:24.693Z,43.26
2018-08-09T06:52:55.427Z,44.05
2018-08-09T06:55:25.980Z,43.20
2018-08-09T06:57:56.601Z,40.68
2018-08-09T07:00:27.344Z,42.94
2018-08-09T07:02:58.097Z,41.96
2018-08-09T07:05:28.866Z,42.64
2018-08-09T07:07:59.560Z,40.97
2018-08-09T07:10:30.415Z,43.51
2018-08-09T07:13:01.190Z,42.34
2018-08-09T07:15:32.000Z,41.76
2018-08-09T07:18:02.672Z,43.02
2018-08-09T07:20:34.397Z,40.96
2018-08-09T07:23:04.960Z,42.91
2018-08-09T07:25:35.551Z,42.58
2018-08-09T07:28:07.152Z,41.61
2018-08-09T07:30:37.910Z,40.52
2018-08-09T07:33:08.589Z,40.25
2018-08-09T07:35:39.384Z,41.59
2018-08-09T07:38:10.158Z,40.30
2018-08-09T07:40:41.252Z,38.83
2018-08-09T07:43:11.987Z,40.34
2018-08-09T07:45:42.678Z,40.16
2018-08-09T07:48:13.296Z,40.12
2018-08-09T07:50:44.109Z,37.84
2018-08-09T07:53:14.776Z,38.27
2018-08-09T07:55:45.674Z,36.50
2018-08-09T07:58:16.393Z,35.92
2018-08-09T08:00:47.175Z,37.38
2018-08-09T08:03:17.801Z,36.57
2018-08-09T08:05:48.716Z,32.65
2018-08-09T08:08:19.460Z,34.51
2018-08-09T08:10:50.344Z,34.31
2018-08-09T08:13:21.421Z,33.68
2018-08-09T08:15:52.217Z,30.81
2018-08-09T08:18:22.882Z,29.96
2018-08-09T08:20:53.637Z,30.67
2018-08-09T08:23:24.321Z,30.30
2018-08-09T08:25:55.174Z,31.09
2018-08-09T08:28:25.896Z,32.59
2018-08-09T08:30:56.569Z,29.09
2018-08-09T08:33:27.226Z,30.65
2018-08-09T08:35:58.081Z,30.41
2018-08-09T08:38:28.735Z,29.59
2018-08-09T08:40:59.381Z,31.37
2018-08-09T08:43:30.033Z,31.31
2018-08-09T08:46:01.074Z,30.81
2018-08-09T08:48:31.740Z,28.43
2018-08-09T08:51:02.601Z,31.31
2018-08-09T08:53:33.242Z,30.72
2018-08-09T08:56:04.383Z,31.23
2018-08-09T08:58:35.140Z,28.91
2018-08-09T09:01:05.712Z,32.20
2018-08-09T09:03:36.340Z,33.30
2018-08-09T09:06:07.307Z,33.64
2018-08-09T09:08:38.090Z,33.48
2018-08-09T09:11:08.909Z,34.33
2018-08-09T09:13:39.518Z,34.48
2018-08-09T09:16:10.160Z,36.07
2018-08-09T09:18:40.832Z,33.95
2018-08-09T09:21:11.516Z,32.19
2018-08-09T09:23:42.253Z,33.56
2018-08-09T09:26:13.117Z,32.00
2018-08-09T09:28:43.760Z,31.88
2018-08-09T09:31:14.521Z,34.49
2018-08-09T09:33:45.148Z,32.65
2018-08-09T09:36:15.894Z,31.72
2018-08-09T09:38:46.476Z,34.10
2018-08-09T09:41:17.201Z,31.89
2018-08-09T09:43:47.749Z,32.37
2018-08-09T09:46:18.580Z,30.84
2018-08-09T09:48:49.237Z,30.57
2018-08-09T09:51:20.130Z,30.25
2018-08-09T09:53:50.893Z,34.49
2018-08-09T09:56:21.625Z,32.31
2018-08-09T09:58:52.252Z,32.75
2018-08-09T10:01:27.881Z,32.65
2018-08-09T10:03:58.450Z,28.97
2018-08-09T10:06:29.530Z,32.23
2018-08-09T10:09:00.241Z,31.32
2018-08-09T10:11:31.479Z,30.50
2018-08-09T10:14:02.397Z,30.06
2018-08-09T10:16:34.022Z,29.49
2018-08-09T10:19:04.797Z,29.61
2018-08-09T10:21:35.502Z,27.01
2018-08-09T10:24:06.213Z,28.18
2018-08-09T10:26:37.341Z,27.69
2018-08-09T10:29:07.925Z,28.16
2018-08-09T10:31:38.563Z,27.01
2018-08-09T10:34:09.237Z,29.67
2018-08-09T10:36:40.233Z,26.53
2018-08-09T10:39:12.486Z,27.75
2018-08-09T10:41:43.469Z,28.71
2018-08-09T10:44:14.277Z,26.88
2018-08-09T10:46:45.896Z,26.79
2018-08-09T10:49:16.548Z,24.74
2018-08-09T10:51:47.197Z,27.58
2018-08-09T10:54:17.950Z,26.83
2018-08-09T10:56:48.932Z,25.56
2018-08-09T10:59:19.460Z,25.07
2018-08-09T11:01:50.165Z,24.72
2018-08-09T11:04:20.789Z,26.26
2018-08-09T11:06:51.475Z,25.13
2018-08-09T11:09:22.145Z,24.85
2018-08-09T11:11:52.867Z,24.58
2018-08-09T11:14:23.548Z,26.34
2018-08-09T11:16:54.457Z,25.64
2018-08-09T11:19:25.160Z,22.49
2018-08-09T11:21:56.488Z,25.17
2018-08-09T11:24:27.021Z,26.09
2018-08-09T11:26:57.800Z,27.95
2018-08-09T11:29:28.522Z,26.16
2018-08-09T11:31:59.600Z,26.34
2018-08-09T11:34:30.373Z,28.00
2018-08-09T11:37:01.249Z,25.62
2018-08-09T11:39:31.969Z,26.48
2018-08-09T11:42:02.722Z,25.96
2018-08-09T11:44:33.277Z,25.12
2018-08-09T11:47:04.490Z,25.10
2018-08-09T11:49:35.093Z,23.80
2018-08-09T11:52:05.849Z,25.90
2018-08-09T11:54:36.566Z,26.55
2018-08-09T11:57:07.453Z,25.96
2018-08-09T11:59:38.224Z,25.72
2018-08-09T12:02:08.885Z,24.84
2018-08-09T12:04:39.599Z,26.41
2018-08-09T12:07:10.857Z,27.25
2018-08-09T12:09:41.446Z,24.64
2018-08-09T12:12:12.279Z,25.88
2018-08-09T12:14:43.160Z,23.85
2018-08-09T12:17:14.029Z,24.40
2018-08-09T12:19:44.834Z,24.26
2018-08-09T12:22:15.568Z,25.26
2018-08-09T12:24:46.405Z,25.84
2018-08-09T12:27:17.323Z,24.93
2018-08-09T12:29:48.152Z,24.77
2018-08-09T12:32:18.912Z,24.35
2018-08-09T12:34:49.725Z,24.99
2018-08-09T12:37:20.633Z,24.36
2018-08-09T12:39:51.293Z,26.29
2018-08-09T12:42:22.305Z,25.43
2018-08-09T12:44:53.333Z,24.37
2018-08-09T12:47:24.128Z,24.95
2018-08-09T12:49:54.774Z,23.36
2018-08-09T12:52:25.512Z,23.87
2018-08-09T12:54:56.368Z,24.20
2018-08-09T12:57:27.441Z,24.54
2018-08-09T12:59:58.159Z,25.33
2018-08-09T13:02:28.816Z,23.15
2018-08-09T13:04:59.514Z,24.86
2018-08-09T13:07:30.232Z,24.99
2018-08-09T13:10:01.247Z,24.78
2018-08-09T13:12:32.247Z,23.99
2018-08-09T13:15:03.033Z,25.62
2018-08-09T13:17:33.819Z,24.11
2018-08-09T13:20:04.620Z,23.74
2018-08-09T13:22:36.085Z,23.13
2018-08-09T13:25:07.568Z,22.02
2018-08-09T13:27:38.401Z,22.83
2018-08-09T13:30:13.387Z,24.39
2018-08-09T13:32:45.160Z,22.62
2018-08-09T13:35:15.868Z,22.56
2018-08-09T13:37:46.587Z,22.45
2018-08-09T13:40:17.337Z,25.01
2018-08-09T13:42:48.490Z,23.98
2018-08-09T13:45:18.860Z,24.72
2018-08-09T13:47:49.697Z,23.82
2018-08-09T13:50:20.463Z,23.82
2018-08-09T13:52:51.566Z,25.30
2018-08-09T13:55:22.207Z,24.48
2018-08-09T13:57:52.625Z,26.27
2018-08-09T14:00:23.119Z,23.67
2018-08-09T14:02:53.776Z,25.13
2018-08-09T14:05:24.252Z,25.29
2018-08-09T14:07:54.993Z,23.58
2018-08-09T14:10:25.324Z,23.61
2018-08-09T14:12:55.900Z,25.37
2018-08-09T14:15:26.241Z,26.54
2018-08-09T14:17:57.958Z,24.56
2018-08-09T14:20:29.079Z,24.13
2018-08-09T14:23:00.644Z,24.94
2018-08-09T14:25:31.882Z,24.42
2018-08-09T14:28:03.227Z,26.99
2018-08-09T14:30:34.710Z,25.18
2018-08-09T14:33:06.126Z,24.97
2018-08-09T14:35:37.778Z,26.19
2018-08-09T14:38:09.122Z,26.72
2018-08-09T14:40:40.284Z,27.46
2018-08-09T14:43:11.723Z,27.35
2018-08-09T14:45:43.179Z,25.87
2018-08-09T14:48:14.199Z,25.22
2018-08-09T14:50:45.079Z,27.04
2018-08-09T14:53:16.180Z,27.67
2018-08-09T14:55:47.658Z,25.59
2018-08-09T14:58:19.310Z,26.55
2018-08-09T15:00:50.336Z,27.33
2018-08-09T15:03:21.362Z,25.77
2018-08-09T15:05:52.418Z,27.06
2018-08-09T15:08:23.973Z,27.41
2018-08-09T15:10:55.040Z,27.94
2018-08-09T15:13:26.580Z,27.95
2018-08-09T15:15:57.615Z,29.44
2018-08-09T15:18:29.182Z,31.37
2018-08-09T15:21:00.333Z,29.78
2018-08-09T15:23:31.789Z,30.49
2018-08-09T15:26:02.814Z,31.60
2018-08-09T15:28:33.751Z,31.49
2018-08-09T15:31:04.590Z,30.56
2018-08-09T15:33:35.542Z,30.79
2018-08-09T15:36:07.182Z,31.02
2018-08-09T15:38:38.791Z,30.76
2018-08-09T15:41:09.897Z,30.87
2018-08-09T15:43:40.962Z,31.40
2018-08-09T15:46:11.904Z,32.27
2018-08-09T15:49:45.367Z,33.74
2018-08-09T15:52:15.928Z,33.31
2018-08-09T15:54:46.982Z,33.44
2018-08-09T15:57:17.666Z,32.29
2018-08-09T15:59:48.664Z,30.00
2018-08-09T16:02:19.389Z,30.30
2018-08-09T16:04:50.201Z,28.73
2018-08-09T16:07:20.829Z,28.61
2018-08-09T16:09:51.505Z,27.65
2018-08-09T16:12:21.973Z,27.63
2018-08-09T16:14:52.676Z,27.92
2018-08-09T16:17:23.057Z,28.53
2018-08-09T16:19:53.400Z,30.91
2018-08-09T16:22:24.325Z,32.43
2018-08-09T16:24:54.926Z,32.06
2018-08-09T16:27:25.360Z,30.07
2018-08-09T16:29:55.762Z,30.13
2018-08-09T16:32:26.617Z,30.15
2018-08-09T16:34:56.924Z,29.16
2018-08-09T16:37:27.394Z,30.06
2018-08-09T16:39:57.686Z,29.83
2018-08-09T16:42:28.397Z,30.10
2018-08-09T16:44:58.842Z,31.17
2018-08-09T16:47:29.249Z,31.09
2018-08-09T16:49:59.640Z,31.01
2018-08-09T16:52:30.200Z,30.56
2018-08-09T16:55:00.635Z,31.87
2018-08-09T16:57:31.201Z,31.81
2018-08-09T17:00:01.533Z,31.77
2018-08-09T17:02:32.004Z,31.68
2018-08-09T17:05:02.509Z,31.32
2018-08-09T17:07:33.149Z,31.58
2018-08-09T17:10:04.007Z,32.22
2018-08-09T17:12:34.841Z,32.44
2018-08-09T17:15:08.614Z,33.76
2018-08-09T17:17:39.376Z,34.14
2018-08-09T17:20:17.007Z,34.57
2018-08-09T17:22:47.664Z,35.38
2018-08-09T17:25:18.347Z,35.42
2018-08-09T17:27:50.132Z,36.94
2018-08-09T17:30:23.092Z,36.62
2018-08-09T17:32:53.644Z,37.27
2018-08-09T17:35:24.045Z,40.33
2018-08-09T17:37:55.766Z,40.92
2018-08-09T17:40:30.474Z,41.74
2018-08-09T17:43:02.269Z,40.68
2018-08-09T17:45:35.001Z,40.71
2018-08-09T17:48:06.900Z,43.38
2018-08-09T17:50:37.251Z,45.56
2018-08-09T17:53:09.993Z,44.98
2018-08-09T17:55:40.466Z,45.43
2018-08-09T17:58:11.056Z,45.85
2018-08-09T18:00:41.805Z,45.90
2018-08-09T18:03:13.344Z,45.16
2018-08-09T18:05:43.649Z,43.96
2018-08-09T18:08:14.284Z,45.21
2018-08-09T18:10:44.989Z,44.44
2018-08-09T18:13:15.735Z,44.01
2018-08-09T18:15:46.340Z,43.96
2018-08-09T18:18:17.032Z,43.92
2018-08-09T18:20:47.373Z,43.14
2018-08-09T18:23:18.156Z,43.42
2018-08-09T18:25:48.900Z,44.10
2018-08-09T18:28:19.835Z,43.57
2018-08-09T18:30:50.526Z,43.84
2018-08-09T18:33:21.361Z,43.68
2018-08-09T18:35:51.898Z,44.00
2018-08-09T18:38:22.766Z,44.01
2018-08-09T18:40:53.513Z,43.98
2018-08-09T18:43:24.377Z,44.24
2018-08-09T18:45:54.858Z,44.08
2018-08-09T18:48:25.754Z,44.46
2018-08-09T18:50:56.304Z,45.04
2018-08-09T18:53:26.942Z,45.17
2018-08-09T18:55:57.676Z,46.35
2018-08-09T18:58:28.601Z,46.39
2018-08-09T19:00:59.325Z,46.44
2018-08-09T19:03:29.982Z,46.31
2018-08-09T19:06:01.269Z,46.23
2018-08-09T19:08:32.340Z,46.77
2018-08-09T19:11:02.891Z,46.08
2018-08-09T19:13:33.666Z,47.76
2018-08-09T19:16:04.300Z,48.54
2018-08-09T19:18:36.009Z,47.62
2018-08-09T19:21:06.301Z,45.64
2018-08-09T19:23:37.329Z,44.34
2018-08-09T19:26:07.661Z,45.50
2018-08-09T19:28:38.073Z,45.54
2018-08-09T19:31:11.515Z,45.34
2018-08-09T19:33:42.176Z,45.61
2018-08-09T19:36:12.573Z,45.78
2018-08-09T19:38:43.223Z,46.27
2018-08-09T19:41:14.141Z,45.44
2018-08-09T19:43:44.769Z,45.60
2018-08-09T19:46:15.786Z,45.76
2018-08-09T19:48:46.650Z,45.34
2018-08-09T19:51:17.349Z,45.52
2018-08-09T19:53:47.864Z,46.16
2018-08-09T19:56:18.831Z,45.93
2018-08-09T19:58:49.506Z,45.33
2018-08-09T20:01:20.303Z,46.04
2018-08-09T20:03:50.941Z,46.04
2018-08-09T20:06:23.555Z,46.73
2018-08-09T20:08:53.895Z,46.30
2018-08-09T20:11:24.258Z,46.48
2018-08-09T20:13:54.626Z,46.69
2018-08-09T20:16:24.977Z,47.11
2018-08-09T20:18:55.411Z,46.96
2018-08-09T20:21:25.737Z,47.24
2018-08-09T20:23:56.114Z,47.90
2018-08-09T20:26:26.711Z,48.00
2018-08-09T20:28:57.041Z,48.24
2018-08-09T20:31:27.454Z,48.41
2018-08-09T20:33:57.920Z,48.40
2018-08-09T20:36:28.460Z,48.66
2018-08-09T20:38:58.970Z,48.44
2018-08-09T20:41:30.443Z,48.60
2018-08-09T20:44:01.024Z,48.19
2018-08-09T20:46:31.794Z,48.23
2018-08-09T20:49:02.446Z,48.17
2018-08-09T20:51:33.221Z,48.49
2018-08-09T20:54:03.890Z,48.39
2018-08-09T20:56:34.528Z,49.14
2018-08-09T20:59:05.136Z,49.11
2018-08-09T21:01:35.820Z,48.42
2018-08-09T21:04:07.209Z,47.91
2018-08-09T21:06:37.961Z,48.79
2018-08-09T21:09:11.152Z,49.05
2018-08-09T21:11:42.780Z,48.84
2018-08-09T21:14:13.449Z,50.16
2018-08-09T21:16:44.100Z,50.13
2018-08-09T21:19:14.709Z,50.95
2018-08-09T21:21:45.308Z,50.54
2018-08-09T21:24:16.034Z,51.49
2018-08-09T21:26:47.266Z,51.95
2018-08-09T21:29:17.912Z,51.89
2018-08-09T21:31:48.786Z,52.22
2018-08-09T21:34:19.368Z,52.54
2018-08-09T21:36:50.253Z,53.51
2018-08-09T21:39:20.852Z,53.57
2018-08-09T21:41:51.423Z,53.04
2018-08-09T21:44:22.154Z,53.20
2018-08-09T21:46:53.023Z,54.33
2018-08-09T21:49:23.653Z,54.11
2018-08-09T21:51:54.544Z,53.33
2018-08-09T21:54:25.150Z,54.06
2018-08-09T21:56:55.926Z,53.87
2018-08-09T21:59:26.598Z,54.10
2018-08-09T22:01:57.305Z,54.70
2018-08-09T22:04:27.973Z,54.19
2018-08-09T22:07:03.652Z,54.00
2018-08-09T22:09:39.432Z,54.39
2018-08-09T22:12:14.942Z,55.28
2018-08-09T22:14:50.742Z,54.76
2018-08-09T22:19:29.872Z,55.27
2018-08-09T22:22:09.606Z,54.80
2018-08-09T22:24:40.684Z,55.39
2018-08-09T22:27:11.869Z,55.80
2018-08-09T22:29:42.564Z,55.13
2018-08-09T22:32:13.569Z,55.15
2018-08-09T22:34:44.302Z,56.02
2018-08-09T22:37:15.020Z,56.29
2018-08-09T22:39:45.621Z,56.11
2018-08-09T22:42:15.956Z,56.04
2018-08-09T22:44:46.553Z,56.43
2018-08-09T22:47:16.817Z,56.39
2018-08-09T22:49:47.509Z,56.11
2018-08-09T22:52:17.795Z,56.74
2018-08-09T22:54:48.153Z,56.73
2018-08-09T22:57:18.392Z,57.92
2018-08-09T22:59:49.060Z,57.33
2018-08-09T23:02:19.512Z,56.47
2018-08-09T23:04:49.937Z,57.13
2018-08-09T23:07:20.353Z,56.62
2018-08-09T23:09:50.700Z,56.48
2018-08-09T23:12:21.037Z,57.09
2018-08-09T23:14:51.344Z,56.61
2018-08-09T23:17:21.584Z,57.15
2018-08-09T23:19:52.049Z,56.98
2018-08-09T23:23:03.852Z,57.00
2018-08-09T23:25:34.600Z,56.79
2018-08-09T23:28:05.330Z,56.45
2018-08-09T23:30:36.034Z,57.04
2018-08-09T23:33:06.424Z,56.27
2018-08-09T23:35:36.716Z,55.96
2018-08-09T23:38:07.601Z,57.74
2018-08-09T23:40:38.189Z,56.91
2018-08-09T23:43:09.124Z,56.05
2018-08-09T23:45:39.388Z,57.28
2018-08-09T23:48:10.069Z,56.82
2018-08-09T23:50:40.661Z,56.02
2018-08-09T23:53:11.369Z,56.81
2018-08-09T23:55:41.944Z,56.18
2018-08-09T23:58:12.832Z,55.97
